sensor_id;sensor_type;location;lat;lon;timestamp;pressure;altitude;pressure_sealevel;temperature;humidity
75991;BME280;64673;52.276;10.560;2022-11-15T00:00:01;100423.03;;;5.32;89.56
75991;BME280;64673;52.276;10.560;2022-11-15T00:02:26;100418.47;;;5.16;89.71
75991;BME280;64673;52.276;10.560;2022-11-15T00:04:52;100411.63;;;5.08;90.67
75991;BME280;64673;52.276;10.560;2022-11-15T00:07:17;100412.19;;;5.10;91.10
75991;BME280;64673;52.276;10.560;2022-11-15T00:09:42;100418.59;;;5.09;90.60
75991;BME280;64673;52.276;10.560;2022-11-15T00:12:07;100416.41;;;5.06;90.65
75991;BME280;64673;52.276;10.560;2022-11-15T00:14:33;100419.06;;;5.06;91.29
75991;BME280;64673;52.276;10.560;2022-11-15T00:16:58;100416.41;;;5.06;91.74
75991;BME280;64673;52.276;10.560;2022-11-15T00:19:23;100422.34;;;5.08;91.34
75991;BME280;64673;52.276;10.560;2022-11-15T00:21:49;100414.03;;;5.10;91.29
75991;BME280;64673;52.276;10.560;2022-11-15T00:24:14;100417.69;;;5.04;90.92
75991;BME280;64673;52.276;10.560;2022-11-15T00:26:39;100419.53;;;5.03;91.73
75991;BME280;64673;52.276;10.560;2022-11-15T00:29:05;100419.31;;;5.05;90.59
75991;BME280;64673;52.276;10.560;2022-11-15T00:31:30;100417.81;;;4.97;91.29
75991;BME280;64673;52.276;10.560;2022-11-15T00:33:55;100417.81;;;4.97;91.27
75991;BME280;64673;52.276;10.560;2022-11-15T00:36:21;100412.94;;;4.94;91.71
75991;BME280;64673;52.276;10.560;2022-11-15T00:38:46;100421.78;;;4.95;91.37
75991;BME280;64673;52.276;10.560;2022-11-15T00:41:12;100418.97;;;5.01;90.63
75991;BME280;64673;52.276;10.560;2022-11-15T00:43:37;100424.31;;;5.01;91.62
75991;BME280;64673;52.276;10.560;2022-11-15T00:46:05;100423.16;;;4.97;91.07
75991;BME280;64673;52.276;10.560;2022-11-15T00:48:33;100422.56;;;5.07;90.68
75991;BME280;64673;52.276;10.560;2022-11-15T00:50:58;100424.31;;;5.01;90.95
75991;BME280;64673;52.276;10.560;2022-11-15T00:53:23;100425.72;;;4.92;90.59
75991;BME280;64673;52.276;10.560;2022-11-15T00:55:49;100424.56;;;4.88;90.64
75991;BME280;64673;52.276;10.560;2022-11-15T00:58:14;100425.13;;;4.90;91.65
75991;BME280;64673;52.276;10.560;2022-11-15T01:00:39;100425.06;;;4.85;90.46
75991;BME280;64673;52.276;10.560;2022-11-15T01:03:05;100421.13;;;4.76;91.05
75991;BME280;64673;52.276;10.560;2022-11-15T01:05:30;100411.94;;;4.60;90.94
75991;BME280;64673;52.276;10.560;2022-11-15T01:07:56;100409.72;;;4.46;91.80
75991;BME280;64673;52.276;10.560;2022-11-15T01:10:22;100405.94;;;4.41;92.57
75991;BME280;64673;52.276;10.560;2022-11-15T01:12:48;100403.03;;;4.55;92.50
75991;BME280;64673;52.276;10.560;2022-11-15T01:15:14;100399.16;;;4.74;92.44
75991;BME280;64673;52.276;10.560;2022-11-15T01:17:39;100389.97;;;4.82;92.15
75991;BME280;64673;52.276;10.560;2022-11-15T01:20:05;100396.31;;;4.92;91.75
75991;BME280;64673;52.276;10.560;2022-11-15T01:22:31;100394.47;;;4.93;91.66
75991;BME280;64673;52.276;10.560;2022-11-15T01:24:56;100379.25;;;4.93;91.15
75991;BME280;64673;52.276;10.560;2022-11-15T01:27:22;100382.28;;;4.97;92.24
75991;BME280;64673;52.276;10.560;2022-11-15T01:29:47;100382.00;;;4.98;91.49
75991;BME280;64673;52.276;10.560;2022-11-15T01:32:12;100379.47;;;4.92;91.63
75991;BME280;64673;52.276;10.560;2022-11-15T01:34:38;100375.19;;;4.91;91.44
75991;BME280;64673;52.276;10.560;2022-11-15T01:37:03;100379.72;;;4.90;91.48
75991;BME280;64673;52.276;10.560;2022-11-15T01:39:28;100379.72;;;4.90;91.90
75991;BME280;64673;52.276;10.560;2022-11-15T01:41:55;100376.47;;;4.88;91.62
75991;BME280;64673;52.276;10.560;2022-11-15T01:46:55;100384.13;;;4.96;91.19
75991;BME280;64673;52.276;10.560;2022-11-15T01:49:22;100381.91;;;4.93;91.88
75991;BME280;64673;52.276;10.560;2022-11-15T01:51:48;100375.66;;;4.88;92.19
75991;BME280;64673;52.276;10.560;2022-11-15T01:54:16;100385.06;;;4.90;92.15
75991;BME280;64673;52.276;10.560;2022-11-15T01:56:59;100385.31;;;4.77;92.14
75991;BME280;64673;52.276;10.560;2022-11-15T01:59:26;100385.81;;;4.74;92.89
75991;BME280;64673;52.276;10.560;2022-11-15T02:01:52;100381.28;;;4.63;93.07
75991;BME280;64673;52.276;10.560;2022-11-15T02:04:28;100374.47;;;4.55;92.62
75991;BME280;64673;52.276;10.560;2022-11-15T02:06:55;100367.50;;;4.54;93.38
75991;BME280;64673;52.276;10.560;2022-11-15T02:09:20;100370.59;;;4.63;93.07
75991;BME280;64673;52.276;10.560;2022-11-15T02:11:46;100359.31;;;4.72;92.43
75991;BME280;64673;52.276;10.560;2022-11-15T02:14:13;100353.25;;;4.77;92.34
75991;BME280;64673;52.276;10.560;2022-11-15T02:27:51;100350.88;;;4.64;92.59
75991;BME280;64673;52.276;10.560;2022-11-15T02:30:38;100349.59;;;4.55;93.44
75991;BME280;64673;52.276;10.560;2022-11-15T02:36:01;100329.97;;;4.49;93.48
75991;BME280;64673;52.276;10.560;2022-11-15T02:38:30;100333.38;;;4.45;93.53
75991;BME280;64673;52.276;10.560;2022-11-15T02:41:02;100328.94;;;4.38;93.05
75991;BME280;64673;52.276;10.560;2022-11-15T02:43:38;100328.59;;;4.47;92.88
75991;BME280;64673;52.276;10.560;2022-11-15T02:51:56;100326.72;;;4.47;93.09
75991;BME280;64673;52.276;10.560;2022-11-15T02:54:26;100317.06;;;4.58;93.13
75991;BME280;64673;52.276;10.560;2022-11-15T02:56:56;100313.56;;;4.69;92.64
75991;BME280;64673;52.276;10.560;2022-11-15T02:59:34;100320.72;;;4.80;92.09
75991;BME280;64673;52.276;10.560;2022-11-15T03:07:43;100318.22;;;5.02;93.57
75991;BME280;64673;52.276;10.560;2022-11-15T03:10:19;100328.19;;;5.06;93.31
75991;BME280;64673;52.276;10.560;2022-11-15T03:12:57;100322.81;;;5.18;93.41
75991;BME280;64673;52.276;10.560;2022-11-15T03:17:59;100316.44;;;5.36;92.93
75991;BME280;64673;52.276;10.560;2022-11-15T03:20:26;100313.94;;;5.46;93.77
75991;BME280;64673;52.276;10.560;2022-11-15T03:22:55;100309.22;;;5.53;93.48
75991;BME280;64673;52.276;10.560;2022-11-15T03:25:24;100315.78;;;5.62;93.06
75991;BME280;64673;52.276;10.560;2022-11-15T03:27:57;100317.56;;;5.73;93.09
75991;BME280;64673;52.276;10.560;2022-11-15T03:30:24;100320.69;;;5.82;93.39
75991;BME280;64673;52.276;10.560;2022-11-15T03:32:53;100309.97;;;5.82;92.59
75991;BME280;64673;52.276;10.560;2022-11-15T03:35:25;100304.53;;;5.94;93.53
75991;BME280;64673;52.276;10.560;2022-11-15T03:37:57;100305.84;;;5.91;93.41
75991;BME280;64673;52.276;10.560;2022-11-15T03:45:58;100304.88;;;5.97;93.50
75991;BME280;64673;52.276;10.560;2022-11-15T03:48:30;100297.06;;;5.96;93.25
75991;BME280;64673;52.276;10.560;2022-11-15T03:50:59;100291.44;;;5.92;92.13
75991;BME280;64673;52.276;10.560;2022-11-15T03:53:24;100297.59;;;5.93;93.56
75991;BME280;64673;52.276;10.560;2022-11-15T03:55:50;100300.25;;;5.93;94.41
75991;BME280;64673;52.276;10.560;2022-11-15T03:58:15;100299.69;;;5.91;93.03
75991;BME280;64673;52.276;10.560;2022-11-15T04:00:40;100303.19;;;5.91;93.31
75991;BME280;64673;52.276;10.560;2022-11-15T04:03:06;100301.69;;;5.83;92.94
75991;BME280;64673;52.276;10.560;2022-11-15T04:05:34;100304.34;;;5.83;92.71
75991;BME280;64673;52.276;10.560;2022-11-15T04:07:59;100309.69;;;5.83;93.55
75991;BME280;64673;52.276;10.560;2022-11-15T04:10:25;100315.06;;;5.83;93.70
75991;BME280;64673;52.276;10.560;2022-11-15T04:12:50;100311.31;;;5.84;93.21
75991;BME280;64673;52.276;10.560;2022-11-15T04:15:21;100312.31;;;5.95;92.91
75991;BME280;64673;52.276;10.560;2022-11-15T04:17:49;100313.22;;;6.01;93.30
75991;BME280;64673;52.276;10.560;2022-11-15T04:20:25;100313.47;;;5.99;93.37
75991;BME280;64673;52.276;10.560;2022-11-15T04:23:20;100317.69;;;5.95;92.84
75991;BME280;64673;52.276;10.560;2022-11-15T04:26:07;100320.59;;;5.94;92.33
75991;BME280;64673;52.276;10.560;2022-11-15T04:28:33;100320.97;;;5.85;92.93
75991;BME280;64673;52.276;10.560;2022-11-15T04:30:59;100323.34;;;5.82;92.58
75991;BME280;64673;52.276;10.560;2022-11-15T04:33:24;100326.56;;;5.84;92.47
75991;BME280;64673;52.276;10.560;2022-11-15T04:35:50;100319.88;;;5.81;93.17
75991;BME280;64673;52.276;10.560;2022-11-15T04:38:36;100331.69;;;5.85;92.83
75991;BME280;64673;52.276;10.560;2022-11-15T04:41:02;100325.75;;;5.83;92.62
75991;BME280;64673;52.276;10.560;2022-11-15T04:43:28;100332.75;;;5.84;92.52
75991;BME280;64673;52.276;10.560;2022-11-15T04:45:53;100328.38;;;5.95;92.99
75991;BME280;64673;52.276;10.560;2022-11-15T04:48:19;100326.03;;;5.99;93.09
75991;BME280;64673;52.276;10.560;2022-11-15T04:50:44;100327.19;;;6.03;92.62
75991;BME280;64673;52.276;10.560;2022-11-15T04:53:09;100332.84;;;6.06;92.46
75991;BME280;64673;52.276;10.560;2022-11-15T04:55:35;100326.75;;;6.11;92.07
75991;BME280;64673;52.276;10.560;2022-11-15T04:58:01;100331.63;;;6.14;92.78
75991;BME280;64673;52.276;10.560;2022-11-15T05:00:28;100333.22;;;6.15;92.44
75991;BME280;64673;52.276;10.560;2022-11-15T05:02:54;100333.75;;;6.12;91.87
75991;BME280;64673;52.276;10.560;2022-11-15T05:05:38;100330.00;;;6.13;92.26
75991;BME280;64673;52.276;10.560;2022-11-15T05:08:03;100333.22;;;6.15;91.83
75991;BME280;64673;52.276;10.560;2022-11-15T05:10:29;100330.31;;;6.16;92.45
75991;BME280;64673;52.276;10.560;2022-11-15T05:12:54;100324.94;;;6.16;91.99
75991;BME280;64673;52.276;10.560;2022-11-15T05:15:20;100320.50;;;6.22;91.88
75991;BME280;64673;52.276;10.560;2022-11-15T05:17:45;100325.59;;;6.23;91.98
75991;BME280;64673;52.276;10.560;2022-11-15T05:20:11;100325.41;;;6.30;91.96
75991;BME280;64673;52.276;10.560;2022-11-15T05:22:36;100330.59;;;6.37;91.61
75991;BME280;64673;52.276;10.560;2022-11-15T05:25:02;100325.56;;;6.40;91.65
75991;BME280;64673;52.276;10.560;2022-11-15T05:27:28;100321.34;;;6.44;91.41
75991;BME280;64673;52.276;10.560;2022-11-15T05:29:53;100329.13;;;6.46;91.47
75991;BME280;64673;52.276;10.560;2022-11-15T05:32:19;100321.47;;;6.54;91.16
75991;BME280;64673;52.276;10.560;2022-11-15T05:34:45;100317.66;;;6.50;91.32
75991;BME280;64673;52.276;10.560;2022-11-15T05:37:11;100315.97;;;6.44;91.36
75991;BME280;64673;52.276;10.560;2022-11-15T05:39:37;100312.41;;;6.39;91.57
75991;BME280;64673;52.276;10.560;2022-11-15T05:42:11;100316.97;;;6.38;91.94
75991;BME280;64673;52.276;10.560;2022-11-15T05:44:39;100315.91;;;6.39;92.00
75991;BME280;64673;52.276;10.560;2022-11-15T05:47:08;100318.00;;;6.37;91.79
75991;BME280;64673;52.276;10.560;2022-11-15T05:49:36;100323.31;;;6.32;91.77
75991;BME280;64673;52.276;10.560;2022-11-15T05:52:05;100321.56;;;6.21;92.06
75991;BME280;64673;52.276;10.560;2022-11-15T05:54:32;100320.91;;;6.14;92.16
75991;BME280;64673;52.276;10.560;2022-11-15T05:56:59;100335.28;;;6.08;92.44
75991;BME280;64673;52.276;10.560;2022-11-15T05:59:25;100338.28;;;5.95;92.21
75991;BME280;64673;52.276;10.560;2022-11-15T06:01:50;100332.06;;;5.89;92.73
75991;BME280;64673;52.276;10.560;2022-11-15T06:04:16;100336.72;;;5.82;92.68
75991;BME280;64673;52.276;10.560;2022-11-15T06:06:41;100323.19;;;5.72;92.48
75991;BME280;64673;52.276;10.560;2022-11-15T06:09:06;100336.13;;;5.63;92.58
75991;BME280;64673;52.276;10.560;2022-11-15T06:11:32;100341.31;;;5.53;92.79
75991;BME280;64673;52.276;10.560;2022-11-15T06:13:57;100333.69;;;5.45;92.99
75991;BME280;64673;52.276;10.560;2022-11-15T06:16:22;100342.44;;;5.40;93.17
75991;BME280;64673;52.276;10.560;2022-11-15T06:18:48;100341.78;;;5.33;93.39
75991;BME280;64673;52.276;10.560;2022-11-15T06:21:13;100346.72;;;5.25;93.55
75991;BME280;64673;52.276;10.560;2022-11-15T06:23:38;100336.78;;;5.37;93.35
75991;BME280;64673;52.276;10.560;2022-11-15T06:26:04;100344.91;;;5.30;94.01
75991;BME280;64673;52.276;10.560;2022-11-15T06:28:32;100339.34;;;5.32;93.26
75991;BME280;64673;52.276;10.560;2022-11-15T06:31:06;100343.56;;;5.28;93.10
75991;BME280;64673;52.276;10.560;2022-11-15T06:33:32;100345.00;;;5.19;93.54
75991;BME280;64673;52.276;10.560;2022-11-15T06:36:02;100342.22;;;5.13;93.55
75991;BME280;64673;52.276;10.560;2022-11-15T06:38:27;100348.53;;;5.07;93.46
75991;BME280;64673;52.276;10.560;2022-11-15T06:40:53;100348.41;;;5.02;93.79
75991;BME280;64673;52.276;10.560;2022-11-15T06:43:18;100346.50;;;4.86;94.26
75991;BME280;64673;52.276;10.560;2022-11-15T06:45:43;100346.97;;;4.83;93.72
75991;BME280;64673;52.276;10.560;2022-11-15T06:48:09;100347.56;;;4.85;93.54
75991;BME280;64673;52.276;10.560;2022-11-15T06:50:34;100347.56;;;4.85;93.78
75991;BME280;64673;52.276;10.560;2022-11-15T06:53:05;100353.75;;;4.74;94.20
75991;BME280;64673;52.276;10.560;2022-11-15T06:55:30;100354.78;;;4.73;94.41
75991;BME280;64673;52.276;10.560;2022-11-15T06:57:56;100367.78;;;4.69;94.03
75991;BME280;64673;52.276;10.560;2022-11-15T07:00:21;100362.91;;;4.66;93.65
75991;BME280;64673;52.276;10.560;2022-11-15T07:02:47;100364.19;;;4.75;94.11
75991;BME280;64673;52.276;10.560;2022-11-15T07:05:14;100374.41;;;4.67;94.04
75991;BME280;64673;52.276;10.560;2022-11-15T07:07:40;100374.41;;;4.67;94.02
75991;BME280;64673;52.276;10.560;2022-11-15T07:10:06;100379.75;;;4.67;94.39
75991;BME280;64673;52.276;10.560;2022-11-15T07:12:31;100380.47;;;4.74;94.10
75991;BME280;64673;52.276;10.560;2022-11-15T07:14:57;100391.00;;;4.81;93.74
75991;BME280;64673;52.276;10.560;2022-11-15T07:17:22;100389.00;;;4.88;93.74
75991;BME280;64673;52.276;10.560;2022-11-15T07:19:48;100389.72;;;4.83;93.66
75991;BME280;64673;52.276;10.560;2022-11-15T07:22:13;100395.06;;;4.83;94.06
75991;BME280;64673;52.276;10.560;2022-11-15T07:24:38;100389.72;;;4.83;94.20
75991;BME280;64673;52.276;10.560;2022-11-15T07:27:04;100398.31;;;4.85;94.17
75991;BME280;64673;52.276;10.560;2022-11-15T07:29:29;100396.25;;;4.87;94.35
75991;BME280;64673;52.276;10.560;2022-11-15T07:31:54;100401.09;;;4.90;94.47
75991;BME280;64673;52.276;10.560;2022-11-15T07:34:20;100397.56;;;5.01;94.02
75991;BME280;64673;52.276;10.560;2022-11-15T07:36:45;100390.81;;;5.10;94.95
75991;BME280;64673;52.276;10.560;2022-11-15T07:39:10;100385.00;;;5.13;94.82
75991;BME280;64673;52.276;10.560;2022-11-15T07:41:37;100388.91;;;5.23;94.27
75991;BME280;64673;52.276;10.560;2022-11-15T07:44:03;100386.41;;;5.33;94.48
75991;BME280;64673;52.276;10.560;2022-11-15T07:46:29;100379.28;;;5.50;93.89
75991;BME280;64673;52.276;10.560;2022-11-15T07:48:54;100385.34;;;5.62;93.75
75991;BME280;64673;52.276;10.560;2022-11-15T07:51:19;100382.38;;;5.75;93.26
75991;BME280;64673;52.276;10.560;2022-11-15T07:53:45;100388.03;;;5.91;92.81
75991;BME280;64673;52.276;10.560;2022-11-15T07:56:10;100390.28;;;5.99;92.94
75991;BME280;64673;52.276;10.560;2022-11-15T07:58:36;100385.66;;;6.11;92.88
75991;BME280;64673;52.276;10.560;2022-11-15T08:01:03;100382.75;;;6.12;92.54
75991;BME280;64673;52.276;10.560;2022-11-15T08:03:29;100386.44;;;6.28;92.91
75991;BME280;64673;52.276;10.560;2022-11-15T08:05:54;100374.91;;;6.44;92.34
75991;BME280;64673;52.276;10.560;2022-11-15T08:08:20;100366.88;;;6.44;92.72
75991;BME280;64673;52.276;10.560;2022-11-15T08:10:45;100362.72;;;6.53;92.37
75991;BME280;64673;52.276;10.560;2022-11-15T08:13:11;100361.47;;;6.61;92.17
75991;BME280;64673;52.276;10.560;2022-11-15T08:15:37;100361.66;;;6.76;91.75
75991;BME280;64673;52.276;10.560;2022-11-15T08:18:08;100346.78;;;6.85;92.52
75991;BME280;64673;52.276;10.560;2022-11-15T08:20:34;100339.53;;;7.08;92.42
75991;BME280;64673;52.276;10.560;2022-11-15T08:23:01;100341.50;;;7.17;91.98
75991;BME280;64673;52.276;10.560;2022-11-15T08:25:27;100336.97;;;7.23;92.01
75991;BME280;64673;52.276;10.560;2022-11-15T08:27:54;100342.19;;;7.34;92.00
75991;BME280;64673;52.276;10.560;2022-11-15T08:30:20;100341.63;;;7.32;91.20
75991;BME280;64673;52.276;10.560;2022-11-15T08:32:46;100337.03;;;7.55;91.72
75991;BME280;64673;52.276;10.560;2022-11-15T08:35:12;100339.78;;;7.60;91.81
75991;BME280;64673;52.276;10.560;2022-11-15T08:37:38;100337.13;;;7.65;91.72
75991;BME280;64673;52.276;10.560;2022-11-15T08:40:04;100341.47;;;7.71;91.41
75991;BME280;64673;52.276;10.560;2022-11-15T08:42:29;100336.69;;;7.78;91.47
75991;BME280;64673;52.276;10.560;2022-11-15T08:44:55;100337.72;;;7.72;91.52
75991;BME280;64673;52.276;10.560;2022-11-15T08:47:20;100334.22;;;7.71;91.99
75991;BME280;64673;52.276;10.560;2022-11-15T08:49:45;100334.81;;;7.79;92.20
75991;BME280;64673;52.276;10.560;2022-11-15T08:52:11;100334.06;;;7.83;91.55
75991;BME280;64673;52.276;10.560;2022-11-15T08:54:36;100324.91;;;7.79;91.46
75991;BME280;64673;52.276;10.560;2022-11-15T08:57:02;100332.63;;;7.76;92.08
75991;BME280;64673;52.276;10.560;2022-11-15T08:59:27;100320.28;;;7.75;91.99
75991;BME280;64673;52.276;10.560;2022-11-15T09:01:53;100322.97;;;7.75;91.69
75991;BME280;64673;52.276;10.560;2022-11-15T09:04:18;100322.78;;;7.81;92.53
75991;BME280;64673;52.276;10.560;2022-11-15T09:06:43;100320.91;;;7.82;92.28
75991;BME280;64673;52.276;10.560;2022-11-15T09:09:09;100324.41;;;7.87;91.88
75991;BME280;64673;52.276;10.560;2022-11-15T09:11:34;100323.09;;;7.90;92.10
75991;BME280;64673;52.276;10.560;2022-11-15T09:14:00;100327.09;;;7.87;92.67
75991;BME280;64673;52.276;10.560;2022-11-15T09:16:25;100329.03;;;7.92;92.62
75991;BME280;64673;52.276;10.560;2022-11-15T09:18:51;100322.59;;;7.93;91.83
75991;BME280;64673;52.276;10.560;2022-11-15T09:21:17;100328.78;;;7.93;92.05
75991;BME280;64673;52.276;10.560;2022-11-15T09:23:42;100323.13;;;7.95;91.62
75991;BME280;64673;52.276;10.560;2022-11-15T09:26:07;100332.25;;;7.94;91.55
75991;BME280;64673;52.276;10.560;2022-11-15T09:28:33;100338.16;;;7.96;91.87
75991;BME280;64673;52.276;10.560;2022-11-15T09:31:02;100337.97;;;8.02;91.31
75991;BME280;64673;52.276;10.560;2022-11-15T09:33:28;100340.41;;;8.04;91.24
75991;BME280;64673;52.276;10.560;2022-11-15T09:35:54;100338.22;;;8.06;91.51
75991;BME280;64673;52.276;10.560;2022-11-15T09:38:20;100331.28;;;8.05;91.02
75991;BME280;64673;52.276;10.560;2022-11-15T09:40:50;100337.72;;;8.09;91.29
75991;BME280;64673;52.276;10.560;2022-11-15T09:43:49;100334.28;;;8.14;91.18
75991;BME280;64673;52.276;10.560;2022-11-15T09:46:31;100334.44;;;8.39;90.70
75991;BME280;64673;52.276;10.560;2022-11-15T09:49:00;100325.94;;;8.52;90.37
75991;BME280;64673;52.276;10.560;2022-11-15T09:51:38;100331.59;;;8.61;90.36
75991;BME280;64673;52.276;10.560;2022-11-15T09:54:25;100329.00;;;8.76;90.03
75991;BME280;64673;52.276;10.560;2022-11-15T09:56:52;100328.19;;;8.80;90.02
75991;BME280;64673;52.276;10.560;2022-11-15T10:05:20;100320.78;;;9.33;88.09
75991;BME280;64673;52.276;10.560;2022-11-15T10:10:52;100315.16;;;9.45;87.67
75991;BME280;64673;52.276;10.560;2022-11-15T10:13:23;100314.91;;;9.46;88.20
75991;BME280;64673;52.276;10.560;2022-11-15T10:15:50;100318.16;;;9.69;86.84
75991;BME280;64673;52.276;10.560;2022-11-15T10:18:35;100309.53;;;9.77;87.27
75991;BME280;64673;52.276;10.560;2022-11-15T10:21:32;100307.91;;;9.76;86.44
75991;BME280;64673;52.276;10.560;2022-11-15T10:24:10;100310.59;;;9.91;86.15
75991;BME280;64673;52.276;10.560;2022-11-15T10:26:37;100296.88;;;9.93;86.56
75991;BME280;64673;52.276;10.560;2022-11-15T10:29:02;100291.19;;;10.04;86.43
75991;BME280;64673;52.276;10.560;2022-11-15T10:31:28;100291.16;;;10.09;85.71
75991;BME280;64673;52.276;10.560;2022-11-15T10:34:13;100281.47;;;10.23;84.57
75991;BME280;64673;52.276;10.560;2022-11-15T10:36:44;100278.25;;;10.21;84.85
75991;BME280;64673;52.276;10.560;2022-11-15T10:39:12;100273.91;;;10.25;85.65
75991;BME280;64673;52.276;10.560;2022-11-15T10:41:40;100276.81;;;10.39;85.24
75991;BME280;64673;52.276;10.560;2022-11-15T10:46:31;100258.97;;;10.53;84.96
75991;BME280;64673;52.276;10.560;2022-11-15T10:49:27;100261.31;;;10.70;84.50
75991;BME280;64673;52.276;10.560;2022-11-15T10:54:30;100258.25;;;10.92;84.06
75991;BME280;64673;52.276;10.560;2022-11-15T10:56:59;100254.72;;;10.96;83.29
75991;BME280;64673;52.276;10.560;2022-11-15T10:59:30;100255.19;;;11.04;83.39
75991;BME280;64673;52.276;10.560;2022-11-15T11:01:57;100246.22;;;11.18;81.65
75991;BME280;64673;52.276;10.560;2022-11-15T11:04:23;100249.72;;;11.14;82.62
75991;BME280;64673;52.276;10.560;2022-11-15T11:06:59;100246.88;;;11.34;81.95
75991;BME280;64673;52.276;10.560;2022-11-15T11:09:31;100251.16;;;11.40;81.63
75991;BME280;64673;52.276;10.560;2022-11-15T11:11:57;100246.88;;;11.34;81.69
75991;BME280;64673;52.276;10.560;2022-11-15T11:14:29;100251.19;;;11.35;82.19
75991;BME280;64673;52.276;10.560;2022-11-15T11:25:30;100255.19;;;12.05;78.17
75991;BME280;64673;52.276;10.560;2022-11-15T11:33:48;100253.56;;;12.52;76.63
75991;BME280;64673;52.276;10.560;2022-11-15T11:36:40;100251.22;;;12.45;77.56
75991;BME280;64673;52.276;10.560;2022-11-15T11:47:32;100249.72;;;12.10;79.62
75991;BME280;64673;52.276;10.560;2022-11-15T11:50:25;100240.28;;;12.08;80.03
75991;BME280;64673;52.276;10.560;2022-11-15T11:52:59;100246.63;;;12.22;78.83
75991;BME280;64673;52.276;10.560;2022-11-15T11:55:31;100241.22;;;12.46;78.40
75991;BME280;64673;52.276;10.560;2022-11-15T12:00:24;100248.53;;;12.64;76.66
75991;BME280;64673;52.276;10.560;2022-11-15T12:03:12;100247.84;;;12.35;78.56
75991;BME280;64673;52.276;10.560;2022-11-15T12:05:40;100246.56;;;12.27;79.29
75991;BME280;64673;52.276;10.560;2022-11-15T12:11:18;100243.22;;;12.35;79.02
75991;BME280;64673;52.276;10.560;2022-11-15T12:13:48;100237.75;;;12.40;79.54
75991;BME280;64673;52.276;10.560;2022-11-15T12:16:28;100232.19;;;12.51;79.43
75991;BME280;64673;52.276;10.560;2022-11-15T12:18:56;100236.19;;;12.58;79.43
75991;BME280;64673;52.276;10.560;2022-11-15T12:21:36;100232.44;;;12.54;79.32
75991;BME280;64673;52.276;10.560;2022-11-15T12:24:13;100223.09;;;12.46;79.26
75991;BME280;64673;52.276;10.560;2022-11-15T12:26:46;100229.00;;;12.49;79.37
75991;BME280;64673;52.276;10.560;2022-11-15T12:29:44;100223.00;;;12.52;79.70
75991;BME280;64673;52.276;10.560;2022-11-15T12:32:26;100208.31;;;12.58;79.81
75991;BME280;64673;52.276;10.560;2022-11-15T12:34:54;100214.75;;;12.62;79.05
75991;BME280;64673;52.276;10.560;2022-11-15T12:43:07;100209.84;;;12.64;78.28
75991;BME280;64673;52.276;10.560;2022-11-15T12:45:49;100199.50;;;12.71;77.47
75991;BME280;64673;52.276;10.560;2022-11-15T12:51:08;100191.81;;;12.59;79.15
75991;BME280;64673;52.276;10.560;2022-11-15T12:53:34;100195.59;;;12.58;78.12
75991;BME280;64673;52.276;10.560;2022-11-15T13:06:47;100181.09;;;12.30;78.92
75991;BME280;64673;52.276;10.560;2022-11-15T13:11:55;100174.72;;;12.21;79.54
75991;BME280;64673;52.276;10.560;2022-11-15T13:17:31;100173.69;;;12.17;79.44
75991;BME280;64673;52.276;10.560;2022-11-15T13:30:51;100169.44;;;12.11;79.99
75991;BME280;64673;52.276;10.560;2022-11-15T13:35:58;100159.19;;;12.08;79.41
75991;BME280;64673;52.276;10.560;2022-11-15T13:40:49;100150.06;;;12.04;79.17
75991;BME280;64673;52.276;10.560;2022-11-15T13:43:35;100149.09;;;11.95;79.93
75991;BME280;64673;52.276;10.560;2022-11-15T13:46:15;100142.88;;;11.94;79.82
75991;BME280;64673;52.276;10.560;2022-11-15T13:48:41;100144.72;;;11.99;79.87
75991;BME280;64673;52.276;10.560;2022-11-15T13:53:49;100126.06;;;11.97;79.51
75991;BME280;64673;52.276;10.560;2022-11-15T13:56:18;100127.25;;;11.91;80.64
75991;BME280;64673;52.276;10.560;2022-11-15T13:58:45;100126.00;;;11.84;80.73
75991;BME280;64673;52.276;10.560;2022-11-15T14:01:17;100125.75;;;11.80;80.58
75991;BME280;64673;52.276;10.560;2022-11-15T14:03:53;100132.28;;;11.74;81.35
75991;BME280;64673;52.276;10.560;2022-11-15T14:06:22;100115.31;;;11.68;81.24
75991;BME280;64673;52.276;10.560;2022-11-15T14:11:29;100117.59;;;11.56;82.46
75991;BME280;64673;52.276;10.560;2022-11-15T14:14:14;100113.34;;;11.50;82.60
75991;BME280;64673;52.276;10.560;2022-11-15T14:19:09;100100.97;;;11.44;83.22
75991;BME280;64673;52.276;10.560;2022-11-15T14:21:35;100100.22;;;11.44;82.70
75991;BME280;64673;52.276;10.560;2022-11-15T14:24:18;100096.69;;;11.43;83.53
75991;BME280;64673;52.276;10.560;2022-11-15T14:26:44;100098.34;;;11.39;83.17
75991;BME280;64673;52.276;10.560;2022-11-15T14:29:28;100104.91;;;11.33;84.23
75991;BME280;64673;52.276;10.560;2022-11-15T14:32:13;100102.25;;;11.28;84.13
75991;BME280;64673;52.276;10.560;2022-11-15T14:34:39;100098.47;;;11.29;83.92
75991;BME280;64673;52.276;10.560;2022-11-15T14:37:04;100097.66;;;11.28;83.99
75991;BME280;64673;52.276;10.560;2022-11-15T14:39:30;100096.81;;;11.33;83.90
75991;BME280;64673;52.276;10.560;2022-11-15T14:41:55;100092.94;;;11.39;83.32
75991;BME280;64673;52.276;10.560;2022-11-15T14:44:20;100103.78;;;11.34;83.26
75991;BME280;64673;52.276;10.560;2022-11-15T14:46:46;100099.50;;;11.33;83.10
75991;BME280;64673;52.276;10.560;2022-11-15T14:49:13;100092.53;;;11.27;83.57
75991;BME280;64673;52.276;10.560;2022-11-15T14:51:39;100082.81;;;11.26;83.81
75991;BME280;64673;52.276;10.560;2022-11-15T14:54:04;100089.94;;;11.17;84.27
75991;BME280;64673;52.276;10.560;2022-11-15T14:56:30;100084.06;;;11.10;84.98
75991;BME280;64673;52.276;10.560;2022-11-15T14:58:55;100085.78;;;11.00;85.39
75991;BME280;64673;52.276;10.560;2022-11-15T15:01:24;100091.47;;;10.99;85.23